createdAt,value
2023-04-24T00:02:20.043Z,100.00
2023-04-24T00:04:50.152Z,100.00
2023-04-24T00:07:21.273Z,100.00
2023-04-24T00:09:51.660Z,100.00
2023-04-24T00:12:21.119Z,100.00
2023-04-24T00:14:50.592Z,100.00
2023-04-24T00:17:23.545Z,100.00
2023-04-24T00:19:59.485Z,100.00
2023-04-24T00:22:29.217Z,100.00
2023-04-24T00:24:59.254Z,100.00
2023-04-24T00:27:28.682Z,99.00
2023-04-24T00:30:01.133Z,97.75
2023-04-24T00:32:33.823Z,97.66
2023-04-24T00:35:03.179Z,97.38
2023-04-24T00:37:32.545Z,98.17
2023-04-24T00:40:02.241Z,99.40
2023-04-24T00:42:31.663Z,100.00
2023-04-24T00:45:04.693Z,99.78
2023-04-24T00:47:37.078Z,99.38
2023-04-24T00:50:07.451Z,99.41
2023-04-24T00:52:37.427Z,98.37
2023-04-24T00:55:08.181Z,98.70
2023-04-24T00:57:37.934Z,99.38
2023-04-24T01:00:11.564Z,98.11
2023-04-24T01:02:46.503Z,96.05
2023-04-24T01:05:16.696Z,95.90
2023-04-24T01:07:50.183Z,95.05
2023-04-24T01:10:21.692Z,95.22
2023-04-24T01:12:51.041Z,95.48
2023-04-24T01:15:21.051Z,95.58
2023-04-24T01:17:53.106Z,95.22
2023-04-24T01:20:22.965Z,96.33
2023-04-24T01:22:55.124Z,96.04
2023-04-24T01:25:24.433Z,97.56
2023-04-24T01:27:53.979Z,95.77
2023-04-24T01:30:23.354Z,96.41
2023-04-24T01:32:52.921Z,94.98
2023-04-24T01:35:22.530Z,94.55
2023-04-24T01:37:51.886Z,94.66
2023-04-24T01:40:23.956Z,95.36
2023-04-24T01:42:53.375Z,94.98
2023-04-24T01:45:22.759Z,94.22
2023-04-24T01:47:53.895Z,93.53
2023-04-24T01:50:23.238Z,94.31
2023-04-24T01:52:52.665Z,93.93
2023-04-24T01:55:24.817Z,94.04
2023-04-24T01:57:56.780Z,94.57
2023-04-24T02:00:26.627Z,92.79
2023-04-24T02:02:56.065Z,93.15
2023-04-24T02:05:25.738Z,92.40
2023-04-24T02:07:55.125Z,92.43
2023-04-24T02:10:27.271Z,92.34
2023-04-24T02:12:56.822Z,92.24
2023-04-24T02:15:26.164Z,91.69
2023-04-24T02:17:55.612Z,92.50
2023-04-24T02:20:25.186Z,91.67
2023-04-24T02:22:54.531Z,90.47
2023-04-24T02:25:26.913Z,90.18
2023-04-24T02:27:56.277Z,89.61
2023-04-24T02:30:25.782Z,89.31
2023-04-24T02:32:55.199Z,90.22
2023-04-24T02:35:24.612Z,90.26
2023-04-24T02:37:54.056Z,89.76
2023-04-24T02:40:23.463Z,88.96
2023-04-24T02:42:55.370Z,88.28
2023-04-24T02:45:24.782Z,91.43
2023-04-24T02:47:54.218Z,92.79
2023-04-24T02:50:23.717Z,91.81
2023-04-24T02:52:53.091Z,90.96
2023-04-24T02:55:22.684Z,90.77
2023-04-24T02:57:52.029Z,90.01
2023-04-24T03:00:24.568Z,89.88
2023-04-24T03:02:54.485Z,90.37
2023-04-24T03:05:24.003Z,90.61
2023-04-24T03:07:53.776Z,90.84
2023-04-24T03:10:23.715Z,93.12
2023-04-24T03:12:53.211Z,93.98
2023-04-24T03:15:25.334Z,93.76
2023-04-24T03:17:56.648Z,93.13
2023-04-24T03:20:26.882Z,93.68
2023-04-24T03:22:57.261Z,92.74
2023-04-24T03:25:26.882Z,91.95
2023-04-24T03:27:56.216Z,91.08
2023-04-24T03:30:28.122Z,90.50
2023-04-24T03:32:57.565Z,89.45
2023-04-24T03:35:27.393Z,88.05
2023-04-24T03:37:56.786Z,88.40
2023-04-24T03:40:26.202Z,88.46
2023-04-24T03:42:55.811Z,87.92
2023-04-24T03:45:27.961Z,88.61
2023-04-24T03:47:57.378Z,88.25
2023-04-24T03:50:27.781Z,88.38
2023-04-24T03:52:57.147Z,88.28
2023-04-24T03:55:26.476Z,87.99
2023-04-24T03:57:55.894Z,87.85
2023-04-24T04:00:28.717Z,88.31
2023-04-24T04:02:58.259Z,87.28
2023-04-24T04:05:28.065Z,86.69
2023-04-24T04:07:57.552Z,86.84
2023-04-24T04:10:27.180Z,86.79
2023-04-24T04:12:56.533Z,87.32
2023-04-24T04:15:28.475Z,87.72
2023-04-24T04:17:57.809Z,86.75
2023-04-24T04:20:27.526Z,87.05
2023-04-24T04:22:56.924Z,87.68
2023-04-24T04:25:26.274Z,88.58
2023-04-24T04:27:56.062Z,87.64
2023-04-24T04:30:30.526Z,87.57
2023-04-24T04:33:00.342Z,88.33
2023-04-24T04:35:29.898Z,86.87
2023-04-24T04:38:00.053Z,86.48
2023-04-24T04:40:29.710Z,85.94
2023-04-24T04:42:59.369Z,85.44
2023-04-24T04:45:32.018Z,86.51
2023-04-24T04:48:01.850Z,85.97
2023-04-24T04:50:31.721Z,86.65
2023-04-24T04:53:01.082Z,86.51
2023-04-24T04:55:30.475Z,87.14
2023-04-24T04:58:03.256Z,86.68
2023-04-24T05:00:36.927Z,86.22
2023-04-24T05:03:19.811Z,86.69
2023-04-24T05:05:50.513Z,86.90
2023-04-24T05:08:26.989Z,87.49
2023-04-24T05:10:57.332Z,88.09
2023-04-24T05:13:38.081Z,88.50
2023-04-24T05:16:11.690Z,89.73
2023-04-24T05:18:41.241Z,90.83
2023-04-24T05:21:10.728Z,91.51
2023-04-24T05:23:40.092Z,93.29
2023-04-24T05:26:09.549Z,92.86
2023-04-24T05:28:39.006Z,93.73
2023-04-24T05:31:11.075Z,94.22
2023-04-24T05:33:40.591Z,94.00
2023-04-24T05:36:10.592Z,93.70
2023-04-24T05:38:39.949Z,95.14
2023-04-24T05:41:09.352Z,95.01
2023-04-24T05:43:38.713Z,94.23
2023-04-24T05:46:10.803Z,94.35
2023-04-24T05:48:40.149Z,92.08
2023-04-24T05:51:09.590Z,92.63
2023-04-24T05:53:38.934Z,91.74
2023-04-24T05:56:08.805Z,91.25
2023-04-24T05:58:38.949Z,90.12
2023-04-24T06:01:11.137Z,89.29
2023-04-24T06:03:42.289Z,88.14
2023-04-24T06:06:12.099Z,87.47
2023-04-24T06:08:41.518Z,86.45
2023-04-24T06:11:10.930Z,87.43
2023-04-24T06:13:40.531Z,85.55
2023-04-24T06:16:12.792Z,86.27
2023-04-24T06:18:42.139Z,87.62
2023-04-24T06:21:11.699Z,87.80
2023-04-24T06:23:41.036Z,88.01
2023-04-24T06:26:10.433Z,88.51
2023-04-24T06:28:39.740Z,86.99
2023-04-24T06:31:09.132Z,86.55
2023-04-24T06:33:41.358Z,87.75
2023-04-24T06:36:11.680Z,85.68
2023-04-24T06:38:41.164Z,84.77
2023-04-24T06:41:10.534Z,83.53
2023-04-24T06:43:39.929Z,84.60
2023-04-24T06:46:09.290Z,87.40
2023-04-24T06:48:41.548Z,84.24
2023-04-24T06:51:11.162Z,86.15
2023-04-24T06:53:40.619Z,87.12
2023-04-24T06:56:10.202Z,86.10
2023-04-24T06:58:39.683Z,84.56
2023-04-24T07:01:09.115Z,84.31
2023-04-24T07:03:41.260Z,84.10
2023-04-24T07:06:12.291Z,83.86
2023-04-24T07:08:43.017Z,81.97
2023-04-24T07:11:12.396Z,84.46
2023-04-24T07:13:43.079Z,83.46
2023-04-24T07:16:12.775Z,82.33
2023-04-24T07:18:44.761Z,82.65
2023-04-24T07:21:14.115Z,80.23
2023-04-24T07:23:43.605Z,79.53
2023-04-24T07:26:13.105Z,79.81
2023-04-24T07:28:42.431Z,77.59
2023-04-24T07:31:12.281Z,76.81
2023-04-24T07:33:44.343Z,78.47
2023-04-24T07:36:17.222Z,78.96
2023-04-24T07:38:46.821Z,79.42
2023-04-24T07:41:16.234Z,79.53
2023-04-24T07:43:45.871Z,79.84
2023-04-24T07:46:15.416Z,80.01
2023-04-24T07:48:55.824Z,80.00
2023-04-24T07:51:39.351Z,80.47
2023-04-24T07:54:09.527Z,81.68
2023-04-24T07:56:40.469Z,80.95
2023-04-24T07:59:10.857Z,81.69
2023-04-24T08:01:40.297Z,78.79
2023-04-24T08:04:12.460Z,78.71
2023-04-24T08:06:42.116Z,77.24
2023-04-24T08:09:11.846Z,75.70
2023-04-24T08:11:41.253Z,74.78
2023-04-24T08:14:10.861Z,73.99
2023-04-24T08:16:40.453Z,73.67
2023-04-24T08:19:12.784Z,75.28
2023-04-24T08:21:42.112Z,74.14
2023-04-24T08:24:11.426Z,73.95
2023-04-24T08:26:40.996Z,73.58
2023-04-24T08:29:10.495Z,75.78
2023-04-24T08:31:40.002Z,76.25
2023-04-24T08:34:13.026Z,76.59
2023-04-24T08:36:47.168Z,73.54
2023-04-24T08:39:18.148Z,73.95
2023-04-24T08:41:49.087Z,72.16
2023-04-24T08:44:19.052Z,72.22
2023-04-24T08:46:51.770Z,72.84
2023-04-24T08:49:23.908Z,72.25
2023-04-24T08:51:56.047Z,71.81
2023-04-24T08:54:25.770Z,71.26
2023-04-24T08:56:57.790Z,71.29
2023-04-24T08:59:27.279Z,70.77
2023-04-24T09:01:58.561Z,70.68
2023-04-24T09:04:33.118Z,71.66
2023-04-24T09:07:03.393Z,72.33
2023-04-24T09:09:34.206Z,74.16
2023-04-24T09:12:04.922Z,74.05
2023-04-24T09:14:37.373Z,73.03
2023-04-24T09:17:07.379Z,72.29
2023-04-24T09:19:39.520Z,73.02
2023-04-24T09:22:09.778Z,72.21
2023-04-24T09:24:39.253Z,71.71
2023-04-24T09:27:11.178Z,73.69
2023-04-24T09:29:41.171Z,73.11
2023-04-24T09:32:26.207Z,72.80
2023-04-24T09:35:14.966Z,71.60
2023-04-24T09:37:46.033Z,71.41
2023-04-24T09:40:20.192Z,71.65
2023-04-24T09:42:50.570Z,71.92
2023-04-24T09:45:20.610Z,72.10
2023-04-24T09:47:50.014Z,70.77
2023-04-24T09:50:22.455Z,71.06
2023-04-24T09:53:01.181Z,69.28
2023-04-24T09:55:30.908Z,69.18
2023-04-24T09:58:06.117Z,70.71
2023-04-24T10:00:37.126Z,70.99
2023-04-24T10:03:08.158Z,71.83
2023-04-24T10:05:42.282Z,70.51
2023-04-24T10:14:48.693Z,70.45
2023-04-24T10:17:18.814Z,69.83
2023-04-24T10:19:49.706Z,69.20
2023-04-24T10:22:21.838Z,69.31
2023-04-24T10:24:56.894Z,69.14
2023-04-24T10:27:27.238Z,68.38
2023-04-24T10:29:57.230Z,69.40
2023-04-24T10:32:27.097Z,68.96
2023-04-24T10:34:57.818Z,69.13
2023-04-24T10:37:30.984Z,69.98
2023-04-24T10:40:00.394Z,70.25
2023-04-24T10:42:31.591Z,70.31
2023-04-24T10:45:03.221Z,70.19
2023-04-24T10:47:32.929Z,69.54
2023-04-24T10:50:04.120Z,68.98
2023-04-24T10:52:56.079Z,71.54
2023-04-24T10:55:44.741Z,70.92
2023-04-24T10:58:15.934Z,69.24
2023-04-24T11:00:46.088Z,67.85
2023-04-24T11:03:28.409Z,68.68
2023-04-24T11:06:03.710Z,67.22
2023-04-24T11:08:40.808Z,66.42
2023-04-24T11:11:15.286Z,67.23
2023-04-24T11:14:08.050Z,67.31
2023-04-24T11:16:39.785Z,67.16
2023-04-24T11:19:10.960Z,66.55
2023-04-24T11:21:45.674Z,68.15
2023-04-24T11:24:52.879Z,66.52
2023-04-24T11:27:24.215Z,66.07
2023-04-24T11:30:04.428Z,66.36
2023-04-24T11:32:38.048Z,64.29
2023-04-24T11:35:09.748Z,64.00
2023-04-24T11:37:41.598Z,62.35
2023-04-24T11:40:16.476Z,62.29
2023-04-24T11:42:48.186Z,62.91
2023-04-24T11:45:19.139Z,63.85
2023-04-24T11:47:49.015Z,64.51
2023-04-24T11:50:19.846Z,63.64
2023-04-24T11:52:51.356Z,63.77
2023-04-24T11:55:30.965Z,64.32
2023-04-24T11:58:02.683Z,63.92
2023-04-24T12:00:35.378Z,64.34
2023-04-24T12:03:10.245Z,63.51
2023-04-24T12:05:40.139Z,65.61
2023-04-24T12:08:10.044Z,66.15
2023-04-24T12:10:42.445Z,67.10
2023-04-24T12:13:13.793Z,66.72
2023-04-24T12:15:44.666Z,67.51
2023-04-24T12:18:18.032Z,67.90
2023-04-24T12:20:47.479Z,67.48
2023-04-24T12:23:16.827Z,65.93
2023-04-24T12:25:48.778Z,66.35
2023-04-24T12:28:18.098Z,66.70
2023-04-24T12:30:51.448Z,66.59
2023-04-24T12:33:21.969Z,66.68
2023-04-24T12:35:52.330Z,67.08
2023-04-24T12:38:26.967Z,68.14
2023-04-24T12:41:09.155Z,67.71
2023-04-24T12:43:39.335Z,67.42
2023-04-24T12:46:09.058Z,66.85
2023-04-24T12:48:38.473Z,68.13
2023-04-24T12:51:08.443Z,68.08
2023-04-24T12:53:37.788Z,68.62
2023-04-24T12:56:09.841Z,67.78
2023-04-24T12:58:39.167Z,68.52
2023-04-24T13:01:08.629Z,68.08
2023-04-24T13:03:38.348Z,67.63
2023-04-24T13:06:07.892Z,67.87
2023-04-24T13:08:37.191Z,67.72
2023-04-24T13:11:09.272Z,68.07
2023-04-24T13:13:38.583Z,68.30
2023-04-24T13:16:08.629Z,68.21
2023-04-24T13:18:38.033Z,68.90
2023-04-24T13:21:07.410Z,69.26
2023-04-24T13:23:36.824Z,68.50
2023-04-24T13:26:08.740Z,68.19
2023-04-24T13:28:39.400Z,67.65
2023-04-24T13:31:08.820Z,68.27
2023-04-24T13:33:38.145Z,68.73
2023-04-24T13:36:07.550Z,70.00
2023-04-24T13:38:36.894Z,69.80
2023-04-24T13:41:10.018Z,69.21
2023-04-24T13:43:39.557Z,68.89
2023-04-24T13:46:08.868Z,69.16
2023-04-24T13:48:38.639Z,67.76
2023-04-24T13:51:08.089Z,68.25
2023-04-24T13:53:39.491Z,68.16
2023-04-24T13:56:11.569Z,68.22
2023-04-24T13:58:41.030Z,68.56
2023-04-24T14:01:10.563Z,67.88
2023-04-24T14:03:41.196Z,68.02
2023-04-24T14:06:10.847Z,68.74
2023-04-24T14:08:40.185Z,69.79
2023-04-24T14:11:12.989Z,70.43
2023-04-24T14:13:44.890Z,69.55
2023-04-24T14:16:15.300Z,69.11
2023-04-24T14:18:44.712Z,70.16
2023-04-24T14:21:15.065Z,70.27
2023-04-24T14:23:45.465Z,70.38
2023-04-24T14:26:17.818Z,70.29
2023-04-24T14:28:47.176Z,70.16
2023-04-24T14:31:16.524Z,71.41
2023-04-24T14:33:47.079Z,71.25
2023-04-24T14:36:16.692Z,72.09
2023-04-24T14:38:46.197Z,71.20
2023-04-24T14:41:18.214Z,71.50
2023-04-24T14:43:47.883Z,71.26
2023-04-24T14:46:17.440Z,71.93
2023-04-24T14:48:46.916Z,71.57
2023-04-24T14:51:16.241Z,71.14
2023-04-24T14:53:48.044Z,71.82
2023-04-24T14:56:19.986Z,71.67
2023-04-24T14:58:49.385Z,74.54
2023-04-24T15:01:19.049Z,77.65
2023-04-24T15:03:48.659Z,78.53
2023-04-24T15:06:18.363Z,79.96
2023-04-24T15:08:50.109Z,81.61
2023-04-24T15:11:22.453Z,82.36
2023-04-24T15:13:51.869Z,80.99
2023-04-24T15:16:21.622Z,81.17
2023-04-24T15:18:50.996Z,81.53
2023-04-24T15:21:20.498Z,82.38
2023-04-24T15:23:49.943Z,85.24
2023-04-24T15:26:22.223Z,86.96
2023-04-24T15:28:52.731Z,87.72
2023-04-24T15:31:24.086Z,89.01
2023-04-24T15:33:53.544Z,89.96
2023-04-24T15:36:22.952Z,91.54
2023-04-24T15:38:53.393Z,91.43
2023-04-24T15:41:26.098Z,91.95
2023-04-24T15:43:55.730Z,93.65
2023-04-24T15:46:25.198Z,92.78
2023-04-24T15:48:54.613Z,96.17
2023-04-24T15:51:23.946Z,96.44
2023-04-24T15:53:56.135Z,98.23
2023-04-24T15:56:30.279Z,95.71
2023-04-24T15:59:00.969Z,94.91
2023-04-24T16:01:31.281Z,94.71
2023-04-24T16:04:00.829Z,94.09
2023-04-24T16:06:30.550Z,95.46
2023-04-24T16:09:01.566Z,94.70
2023-04-24T16:11:36.572Z,94.84
2023-04-24T16:14:05.918Z,94.23
2023-04-24T16:16:35.981Z,93.76
2023-04-24T16:19:06.966Z,93.64
2023-04-24T16:21:36.288Z,93.44
2023-04-24T16:24:05.649Z,92.47
2023-04-24T16:26:37.602Z,91.19
2023-04-24T16:29:07.051Z,91.81
2023-04-24T16:31:36.647Z,91.94
2023-04-24T16:34:06.033Z,92.39
2023-04-24T16:36:35.982Z,92.17
2023-04-24T16:39:05.640Z,91.16
2023-04-24T16:41:37.523Z,91.29
2023-04-24T16:44:07.132Z,91.65
2023-04-24T16:46:36.991Z,91.76
2023-04-24T16:49:06.378Z,92.96
2023-04-24T16:51:37.293Z,93.09
2023-04-24T16:54:06.904Z,93.00
2023-04-24T16:56:39.261Z,92.46
2023-04-24T16:59:08.735Z,92.99
2023-04-24T17:01:38.245Z,92.26
2023-04-24T17:04:07.835Z,93.77
2023-04-24T17:06:38.009Z,92.64
2023-04-24T17:09:07.433Z,92.10
2023-04-24T17:11:39.370Z,93.33
2023-04-24T17:14:08.908Z,92.63
2023-04-24T17:16:40.444Z,92.23
2023-04-24T17:19:11.353Z,92.24
2023-04-24T17:21:40.711Z,92.79
2023-04-24T17:24:10.571Z,93.69
2023-04-24T17:26:42.480Z,92.15
2023-04-24T17:29:12.894Z,92.63
2023-04-24T17:31:43.963Z,92.28
2023-04-24T17:34:13.323Z,94.24
2023-04-24T17:36:42.683Z,93.90
2023-04-24T17:39:13.137Z,93.86
2023-04-24T17:41:45.455Z,94.79
2023-04-24T17:44:14.753Z,94.22
2023-04-24T17:46:44.288Z,93.03
2023-04-24T17:49:14.162Z,92.89
2023-04-24T17:51:43.662Z,93.56
2023-04-24T17:54:13.005Z,93.76
2023-04-24T17:56:45.026Z,93.26
2023-04-24T17:59:14.454Z,92.82
2023-04-24T18:01:43.794Z,92.49
2023-04-24T18:04:13.478Z,92.88
2023-04-24T18:06:42.906Z,92.33
2023-04-24T18:09:12.389Z,91.65
2023-04-24T18:11:43.158Z,92.05
2023-04-24T18:14:15.139Z,91.24
2023-04-24T18:16:45.095Z,91.95
2023-04-24T18:19:14.411Z,93.66
2023-04-24T18:21:43.905Z,93.30
2023-04-24T18:24:13.436Z,92.38
2023-04-24T18:26:42.786Z,92.31
2023-04-24T18:29:14.745Z,91.66
2023-04-24T18:31:44.167Z,91.46
2023-04-24T18:34:13.576Z,93.03
2023-04-24T18:36:42.952Z,92.74
2023-04-24T18:39:13.349Z,92.04
2023-04-24T18:41:42.962Z,91.81
2023-04-24T18:44:15.456Z,93.00
2023-04-24T18:46:45.349Z,93.54
2023-04-24T18:49:14.881Z,92.95
2023-04-24T18:51:53.975Z,92.98
2023-04-24T18:54:24.030Z,92.94
2023-04-24T18:56:55.228Z,92.54
2023-04-24T18:59:27.834Z,93.25
2023-04-24T19:01:57.279Z,93.10
2023-04-24T19:04:26.696Z,93.79
2023-04-24T19:06:56.247Z,92.93
2023-04-24T19:09:25.609Z,93.86
2023-04-24T19:11:54.990Z,93.61
2023-04-24T19:14:27.016Z,94.75
2023-04-24T19:16:56.683Z,94.21
2023-04-24T19:19:28.335Z,93.97
2023-04-24T19:21:57.726Z,94.92
2023-04-24T19:24:29.215Z,94.83
2023-04-24T19:26:58.755Z,93.91
2023-04-24T19:29:30.832Z,94.05
2023-04-24T19:32:00.409Z,93.55
2023-04-24T19:34:30.857Z,94.35
2023-04-24T19:37:00.248Z,94.21
2023-04-24T19:39:32.482Z,93.73
2023-04-24T19:42:04.105Z,94.33
2023-04-24T19:44:37.912Z,93.19
2023-04-24T19:47:07.473Z,93.56
2023-04-24T19:49:36.889Z,92.94
2023-04-24T19:52:06.573Z,92.82
2023-04-24T19:54:36.069Z,93.02
2023-04-24T19:57:05.776Z,93.54
2023-04-24T19:59:37.806Z,92.73
2023-04-24T20:02:07.170Z,93.64
2023-04-24T20:04:36.724Z,92.38
2023-04-24T20:07:06.268Z,92.71
2023-04-24T20:09:35.637Z,92.67
2023-04-24T20:12:05.060Z,93.04
2023-04-24T20:14:36.990Z,92.21
2023-04-24T20:17:06.352Z,92.62
2023-04-24T20:19:35.724Z,92.52
2023-04-24T20:22:05.055Z,92.51
2023-04-24T20:24:37.039Z,92.98
2023-04-24T20:27:06.667Z,93.29
2023-04-24T20:29:38.609Z,92.96
2023-04-24T20:32:08.294Z,93.43
2023-04-24T20:34:37.700Z,93.84
2023-04-24T20:37:07.290Z,93.80
2023-04-24T20:39:37.097Z,93.27
2023-04-24T20:42:07.776Z,93.33
2023-04-24T20:44:40.145Z,94.23
2023-04-24T20:47:09.879Z,93.16
2023-04-24T20:49:39.257Z,93.85
2023-04-24T20:52:09.187Z,94.45
2023-04-24T20:54:38.535Z,93.64
2023-04-24T20:57:07.883Z,92.38
2023-04-24T20:59:39.824Z,93.63
2023-04-24T21:02:09.667Z,92.55
2023-04-24T21:04:40.188Z,92.41
2023-04-24T21:07:10.378Z,93.16
2023-04-24T21:09:40.012Z,92.56
2023-04-24T21:12:10.205Z,91.05
2023-04-24T21:14:42.119Z,91.96
2023-04-24T21:17:11.572Z,92.13
2023-04-24T21:19:40.929Z,92.12
2023-04-24T21:22:10.332Z,92.95
2023-04-24T21:24:40.002Z,92.70
2023-04-24T21:27:09.976Z,91.69
2023-04-24T21:29:42.070Z,91.78
2023-04-24T21:32:11.654Z,91.90
2023-04-24T21:34:41.053Z,92.56
2023-04-24T21:37:11.322Z,92.14
2023-04-24T21:39:40.628Z,92.74
2023-04-24T21:42:10.029Z,94.54
2023-04-24T21:44:42.016Z,94.19
2023-04-24T21:47:11.600Z,93.52
2023-04-24T21:49:42.404Z,93.33
2023-04-24T21:52:11.845Z,94.60
2023-04-24T21:54:41.257Z,94.63
2023-04-24T21:57:10.589Z,95.18
2023-04-24T21:59:42.688Z,94.89
2023-04-24T22:02:12.266Z,94.68
2023-04-24T22:04:42.202Z,95.73
2023-04-24T22:07:11.712Z,95.94
2023-04-24T22:09:41.023Z,96.11
2023-04-24T22:12:10.431Z,94.99
2023-04-24T22:14:42.312Z,95.61
2023-04-24T22:17:12.396Z,95.39
2023-04-24T22:19:43.590Z,95.43
2023-04-24T22:22:13.096Z,96.50
2023-04-24T22:24:42.437Z,96.78
2023-04-24T22:27:11.926Z,96.89
2023-04-24T22:29:44.058Z,96.62
2023-04-24T22:32:13.414Z,96.29
2023-04-24T22:34:42.826Z,96.38
2023-04-24T22:37:12.176Z,97.05
2023-04-24T22:39:41.538Z,95.61
2023-04-24T22:42:11.096Z,95.80
2023-04-24T22:44:40.832Z,95.58
2023-04-24T22:47:12.861Z,95.53
2023-04-24T22:49:42.180Z,95.40
2023-04-24T22:52:13.736Z,95.44
2023-04-24T22:54:43.890Z,94.46
2023-04-24T22:57:13.220Z,96.31
2023-04-24T22:59:42.672Z,95.93
2023-04-24T23:02:14.723Z,95.42
2023-04-24T23:04:44.142Z,94.93
2023-04-24T23:07:14.332Z,94.75
2023-04-24T23:09:43.641Z,94.20
2023-04-24T23:12:13.045Z,93.61
2023-04-24T23:14:42.424Z,93.65
2023-04-24T23:17:14.357Z,95.28
2023-04-24T23:19:43.683Z,93.94
2023-04-24T23:22:13.159Z,94.61
2023-04-24T23:24:42.713Z,94.87
2023-04-24T23:27:12.048Z,95.49
2023-04-24T23:29:41.374Z,95.18
2023-04-24T23:32:10.751Z,95.46
2023-04-24T23:34:42.734Z,94.87
2023-04-24T23:37:12.096Z,94.57
2023-04-24T23:39:41.475Z,95.51
2023-04-24T23:42:10.888Z,94.74
2023-04-24T23:44:40.315Z,95.05
2023-04-24T23:47:09.656Z,96.25
2023-04-24T23:49:39.285Z,95.82
2023-04-24T23:52:11.162Z,95.85
2023-04-24T23:54:40.684Z,95.91
2023-04-24T23:57:10.001Z,97.16
2023-04-24T23:59:39.328Z,97.28
